Latest Weather Observations for Badgerys Creek

IDN60901

Issued at 6:51 pm EDT Wednesday 29 January 2020 (issued every 10 minutes, with the page automatically refreshed every 10 minutes)

About weather observations | Map of Sydney area stations | Latest observations for Sydney area | Other Formats
Station Details ID: 067108 Name: BADGERYS CREEK AWS Lat: -33.90 Lon: 150.73 Height: 81.2 m
Data from the previous 72 hours. | See also: Recent months at Badgerys Creek
Date/Time
EDT
Temp
°C
App
Temp
°C
Dew
Point
°C
Rel
Hum
%
Delta-T
°C
Wind Press
QNH
hPa
Press
MSL
hPa
Rain since
9am
mm
Dir  Spd
km/h
Gust
km/h
Spd
kts
Gust
kts
29/06:30pm 25.3 24.8 17.7 62 4.8 SE 17 26 9 14 1016.3 1016.0 0.0
29/06:00pm 25.8 25.0 18.0 62 4.9 ESE 19 28 10 15 1015.9 1015.6 0.0
29/05:30pm 26.7 26.4 18.3 60 5.4 ESE 17 30 9 16 1015.8 1015.5 0.0
29/05:00pm 27.0 26.3 18.3 59 5.5 ESE 19 28 10 15 1015.6 1015.3 0.0
29/04:30pm 27.6 26.7 18.3 57 5.9 E 20 30 11 16 1015.4 1015.1 0.0
29/04:00pm 29.0 28.4 18.4 52 6.8 ESE 19 30 10 16 1015.2 1014.9 0.0
29/03:30pm 28.4 27.0 17.9 53 6.7 E 22 32 12 17 1015.2 1014.9 0.0
29/03:00pm 28.6 27.7 17.8 52 6.9 E 19 28 10 15 1015.2 1014.9 0.0
29/02:30pm 29.4 29.1 18.2 51 7.2 E 17 24 9 13 1015.1 1014.8 0.0
29/02:00pm 28.7 28.2 17.9 52 6.9 E 17 26 9 14 1015.3 1015.0 0.0
29/01:30pm 28.5 28.2 17.4 51 7.0 E 15 24 8 13 1015.5 1015.2 0.0
29/01:00pm 28.8 28.4 18.0 52 6.9 ESE 17 26 9 14 1015.7 1015.4 0.0
29/12:30pm 28.9 30.0 18.1 52 6.9 NE 9 17 5 9 1016.0 1015.7 0.0
29/12:00pm 27.4 27.8 17.3 54 6.3 E 11 20 6 11 1016.2 1015.9 0.0
29/11:30am 27.8 29.0 17.3 52 6.6 E 7 11 4 6 1016.5 1016.2 0.0
29/11:00am 26.6 27.9 17.1 56 5.9 NNE 6 13 3 7 1016.8 1016.5 0.0
29/10:30am 27.2 28.4 17.4 55 6.2 ENE 7 13 4 7 1016.9 1016.6 0.0
29/10:00am 25.4 26.4 16.3 57 5.6 SE 6 11 3 6 1017.0 1016.7 0.0
29/09:30am 24.9 26.0 16.6 60 5.1 SE 6 9 3 5 1016.9 1016.6 0.0
29/09:00am 23.8 24.7 16.6 64 4.4 SE 7 13 4 7 1016.9 1016.6 0.0
29/08:30am 23.6 24.5 16.6 65 4.3 SE 7 11 4 6 1016.6 1016.3 0.0
29/08:00am 23.4 24.8 17.4 69 3.7 SSE 6 9 3 5 1016.4 1016.1 0.0
29/07:30am 23.2 24.4 17.4 70 3.6 S 7 11 4 6 1016.4 1016.1 0.0
29/07:00am 22.9 24.1 17.4 71 3.4 S 7 13 4 7 1016.1 1015.8 0.0
29/06:30am 22.9 24.2 17.6 72 3.3 SSW 7 11 4 6 1015.8 1015.5 0.0
29/06:00am 23.1 23.4 18.0 73 3.2 S 13 17 7 9 1015.4 1015.1 0.0
29/05:30am 23.3 24.2 18.4 74 3.1 S 11 15 6 8 1015.1 1014.8 0.0
29/05:00am 23.4 24.7 18.5 74 3.1 S 9 13 5 7 1014.8 1014.4 0.0
29/04:30am 23.5 25.3 18.8 75 3.0 S 7 9 4 5 1014.8 1014.4 0.0
29/04:00am 23.6 25.1 18.9 75 3.0 S 9 15 5 8 1014.8 1014.4 0.0
29/03:30am 23.8 24.9 18.9 74 3.1 S 11 17 6 9 1014.8 1014.4 0.0
29/03:00am 24.0 25.6 19.1 74 3.1 S 9 13 5 7 1015.0 1014.6 0.0
29/02:30am 24.1 26.1 19.2 74 3.1 S 7 11 4 6 1014.9 1014.5 0.0
29/02:00am 24.1 25.4 19.2 74 3.1 S 11 17 6 9 1014.8 1014.4 0.0
29/01:30am 24.2 26.0 19.5 75 3.0 SSW 9 15 5 8 1015.1 1014.8 0.0
29/01:00am 23.9 25.9 20.0 79 2.5 S 9 13 5 7 1015.1 1014.8 0.0
29/12:30am 23.9 25.1 19.8 78 2.6 S 13 20 7 11 1015.2 1014.9 0.0
29/12:00am 24.6 26.6 19.9 75 3.0 S 9 15 5 8 1015.2 1014.9 0.0
 
Date/Time
EDT
Temp
°C
App
Temp
°C
Dew
Point
°C
Rel
Hum
%
Delta-T
°C
Wind Press
QNH
hPa
Press
MSL
hPa
Rain since
9am
mm
Dir  Spd
km/h
Gust
km/h
Spd
kts
Gust
kts
28/11:30pm 24.8 26.9 20.1 75 3.1 S 9 13 5 7 1015.0 1014.6 0.0
28/11:00pm 24.9 26.2 20.2 75 3.1 S 13 22 7 12 1015.1 1014.8 0.0
28/10:30pm 25.0 27.2 20.5 76 2.9 S 9 17 5 9 1015.1 1014.8 0.0
28/10:00pm 25.0 26.4 20.3 75 3.1 S 13 19 7 10 1014.5 1014.1 0.0
28/09:30pm 25.1 26.5 20.4 75 3.1 S 13 24 7 13 1013.9 1013.5 0.0
28/09:00pm 25.2 25.9 20.5 75 3.1 S 17 26 9 14 1013.3 1012.9 0.0
28/08:30pm 25.2 26.4 20.7 76 3.0 SSE 15 26 8 14 1012.8 1012.4 0.0
28/08:00pm 25.3 26.4 21.2 78 2.7 SSE 17 24 9 13 1012.3 1011.9 0.0
28/07:30pm 25.8 26.7 21.5 77 2.9 SSE 19 35 10 19 1011.6 1011.2 0.0
28/07:00pm 25.9 26.0 21.1 75 3.2 SE 22 32 12 17 1011.2 1010.8 0.0
28/06:30pm 27.3 27.6 21.6 71 3.8 SE 22 33 12 18 1010.4 1010.0 0.0
28/06:00pm 27.7 27.6 21.5 69 4.2 ESE 24 35 13 19 1009.8 1009.4 0.0
28/05:30pm 29.1 28.8 21.8 64 4.9 ESE 26 35 14 19 1008.8 1008.4 0.0
28/05:00pm 31.1 32.1 22.1 58 6.1 ESE 20 30 11 16 1008.2 1007.8 0.0
28/04:30pm 33.1 34.7 22.8 54 7.1 ESE 19 28 10 15 1008.1 1007.7 0.0
28/04:00pm 32.9 34.4 22.7 55 7.0 E 19 24 10 13 1008.3 1007.9 0.0
28/03:30pm 33.1 34.7 22.2 52 7.5 E 17 20 9 11 1008.5 1008.1 0.0
28/03:00pm 33.8 35.6 21.9 49 8.1 ENE 15 22 8 12 1008.6 1008.2 0.0
28/02:30pm 34.0 36.3 21.4 47 8.6 NNE 11 19 6 10 1009.1 1008.7 0.0
28/02:00pm 34.7 37.8 22.1 48 8.7 NNE 9 20 5 11 1009.6 1009.2 0.0
28/01:30pm 31.8 34.3 21.0 52 7.3 NE 9 15 5 8 1010.4 1010.0 0.0
28/01:00pm 32.4 35.9 21.9 54 7.2 NNE 6 13 3 7 1010.6 1010.2 0.0
28/12:30pm 31.4 34.3 21.8 56 6.5 NNE 9 17 5 9 1010.9 1010.5 0.0
28/12:00pm 30.9 35.0 22.2 59 5.9 ENE 4 11 2 6 1011.6 1011.2 0.0
28/11:30am 30.0 33.0 21.9 62 5.5 NNE 9 17 5 9 1011.9 1011.5 0.0
28/11:00am 28.3 31.4 21.1 65 4.8 NNE 6 11 3 6 1012.5 1012.1 0.0
28/10:30am 27.6 31.2 21.2 68 4.3 SE 4 6 2 3 1012.9 1012.5 0.0
28/10:00am 27.0 30.0 20.8 69 4.1 ESE 6 9 3 5 1013.1 1012.7 0.0
28/09:30am 26.6 30.1 21.1 72 3.6 SSE 4 9 2 5 1013.2 1012.8 0.0
28/09:00am 25.4 29.2 20.9 76 3.0 S 2 7 1 4 1013.2 1012.8 0.0
28/08:30am 24.7 27.8 21.0 80 2.4 S 6 7 3 4 1013.3 1012.9 0.0
28/08:00am 24.1 27.9 21.0 83 2.0 S 2 4 1 2 1013.2 1012.8 0.0
28/07:30am 23.7 28.1 21.4 87 1.5 CALM 0 2 0 1 1012.8 1012.4 0.0
28/07:00am 22.8 26.7 21.1 90 1.1 S 2 4 1 2 1012.6 1012.2 0.0
28/06:30am 22.5 25.5 21.3 93 0.8 S 7 9 4 5 1012.5 1012.1 0.0
28/06:00am 22.3 25.4 21.1 93 0.8 S 6 9 3 5 1012.2 1011.8 0.0
28/05:30am 21.9 24.9 20.9 94 0.7 S 6 7 3 4 1011.9 1011.5 0.0
28/05:00am 21.9 24.8 20.7 93 0.8 S 6 6 3 3 1011.7 1011.3 0.0
28/04:30am 22.3 25.9 20.6 90 1.1 S 2 4 1 2 1011.7 1011.3 0.0
28/04:00am 22.7 26.4 20.8 89 1.2 S 2 6 1 3 1011.7 1011.3 0.0
28/03:30am 22.9 26.3 21.0 89 1.2 S 4 6 2 3 1011.9 1011.5 0.0
28/03:00am 23.0 26.0 20.9 88 1.4 S 6 7 3 4 1012.3 1011.9 0.0
28/02:30am 23.2 26.2 20.9 87 1.5 S 6 7 3 4 1012.6 1012.2 0.0
28/02:00am 23.5 26.8 20.8 85 1.8 S 4 6 2 3 1012.4 1012.0 0.0
28/01:30am 23.7 26.4 20.6 83 2.0 S 7 9 4 5 1012.8 1012.4 0.0
28/01:00am 24.1 26.8 20.6 81 2.3 S 7 9 4 5 1012.9 1012.5 0.0
28/12:30am 24.4 27.3 20.7 80 2.4 S 6 9 3 5 1013.1 1012.7 0.0
28/12:00am 24.7 27.1 20.8 79 2.6 SSE 9 15 5 8 1013.4 1013.0 0.0
 
Date/Time
EDT
Temp
°C
App
Temp
°C
Dew
Point
°C
Rel
Hum
%
Delta-T
°C
Wind Press
QNH
hPa
Press
MSL
hPa
Rain since
9am
mm
Dir  Spd
km/h
Gust
km/h
Spd
kts
Gust
kts
27/11:30pm 24.7 27.8 21.0 80 2.4 ESE 6 9 3 5 1013.4 1013.0 0.0
27/11:00pm 24.6 28.1 21.1 81 2.3 ESE 4 6 2 3 1013.3 1012.9 0.0
27/10:30pm 24.9 28.1 21.2 80 2.4 E 6 6 3 3 1013.3 1012.9 0.0
27/10:00pm 25.1 28.3 21.2 79 2.6 E 6 7 3 4 1013.2 1012.8 0.0
27/09:30pm 25.6 28.8 21.3 77 2.9 E 6 7 3 4 1012.7 1012.3 0.0
27/09:00pm 25.9 29.1 21.3 76 3.1 E 6 9 3 5 1012.5 1012.1 0.0
27/08:30pm 26.4 29.5 21.4 74 3.3 E 7 9 4 5 1012.2 1011.8 0.0
27/08:00pm 26.9 29.2 21.4 72 3.7 E 11 13 6 7 1011.8 1011.4 0.0
27/07:30pm 27.7 29.8 21.0 67 4.5 E 11 17 6 9 1011.4 1011.0 0.0
27/07:00pm 28.3 30.3 21.6 67 4.5 ENE 13 19 7 10 1011.0 1010.6 0.0
27/06:30pm 28.9 29.9 21.7 65 4.8 ENE 19 26 10 14 1010.6 1010.2 0.0
27/06:00pm 28.6 29.2 21.1 64 5.0 ESE 19 26 10 14 1010.6 1010.2 0.0
27/05:30pm 29.3 29.9 21.0 61 5.5 ESE 19 28 10 15 1010.6 1010.2 0.0
27/05:00pm 30.3 30.8 21.1 58 6.2 ESE 20 30 11 16 1010.8 1010.4 0.0
27/04:30pm 31.5 32.3 21.4 55 6.8 E 19 24 10 13 1010.8 1010.4 0.0
27/04:00pm 31.7 33.2 21.2 53 7.1 E 15 22 8 12 1010.8 1010.4 0.0
27/03:30pm 32.7 33.9 21.5 51 7.6 ENE 17 28 9 15 1011.2 1010.8 0.0
27/03:00pm 31.5 32.0 20.8 53 7.2 ENE 19 26 10 14 1011.4 1011.0 0.0
27/02:30pm 31.7 32.1 20.6 51 7.4 E 19 26 10 14 1011.6 1011.2 0.0
27/02:00pm 31.9 33.2 20.8 51 7.4 ENE 15 22 8 12 1012.0 1011.6 0.0
27/01:30pm 30.7 31.9 20.6 54 6.7 E 15 24 8 13 1012.5 1012.1 0.0
27/01:00pm 31.5 34.8 21.4 55 6.8 E 6 17 3 9 1012.8 1012.4 0.0
27/12:30pm 30.5 33.1 20.4 54 6.7 NE 7 13 4 7 1013.1 1012.7 0.0
27/12:00pm 31.0 33.8 20.9 55 6.8 NNE 7 15 4 8 1013.5 1013.1 0.0
27/11:30am 30.3 33.3 20.8 56 6.3 SE 6 9 3 5 1013.9 1013.5 0.0
27/11:00am 29.5 32.7 20.4 58 6.0 ENE 4 9 2 5 1014.3 1013.9 0.0
27/10:30am 29.0 31.8 20.4 59 5.7 SE 6 9 3 5 1014.5 1014.1 0.0
27/10:00am 27.5 29.9 20.1 64 4.9 SSE 7 13 4 7 1014.7 1014.3 0.0
27/09:30am 26.9 29.5 20.5 68 4.2 S 7 13 4 7 1015.0 1014.6 0.0
27/09:00am 25.9 27.8 19.8 69 4.0 SW 9 15 5 8 1015.0 1014.6 0.0
27/08:30am 25.4 27.8 20.0 72 3.5 SW 7 11 4 6 1014.9 1014.5 0.0
27/08:00am 25.2 27.3 20.2 74 3.3 SW 9 13 5 7 1014.9 1014.5 0.0
27/07:30am 24.2 25.8 19.9 77 2.8 S 11 15 6 8 1014.7 1014.3 0.0
27/07:00am 24.0 26.1 20.1 79 2.5 S 9 13 5 7 1014.6 1014.2 0.0
27/06:30am 23.9 25.9 20.0 79 2.5 S 9 13 5 7 1014.3 1013.9 0.0
27/06:00am 24.0 26.0 19.9 78 2.7 S 9 15 5 8 1014.2 1013.8 0.0
27/05:30am 24.1 26.0 19.8 77 2.8 SSW 9 13 5 7 1013.9 1013.5 0.0
27/05:00am 24.1 26.3 19.6 76 2.9 SSW 7 9 4 5 1013.7 1013.3 0.0
27/04:30am 24.1 25.5 19.6 76 2.9 SSW 11 17 6 9 1013.5 1013.1 0.0
27/04:00am 24.1 25.4 19.4 75 3.0 S 11 17 6 9 1013.6 1013.2 0.0
27/03:30am 24.2 24.8 19.5 75 3.0 SSW 15 20 8 11 1013.7 1013.3 0.0
27/03:00am 24.2 24.8 19.5 75 3.0 SSW 15 22 8 12 1013.6 1013.2 0.0
27/02:30am 24.3 24.6 19.6 75 3.0 S 17 22 9 12 1013.5 1013.1 0.0
27/02:00am 24.4 24.3 19.9 76 2.9 S 20 30 11 16 1013.2 1012.8 0.0
27/01:30am 24.9 25.2 20.4 76 2.9 S 19 32 10 17 1012.9 1012.5 0.0
27/01:00am 25.6 26.5 20.8 75 3.2 SSE 17 24 9 13 1012.6 1012.2 0.0
27/12:30am 27.0 28.2 19.9 65 4.6 SE 13 24 7 13 1012.4 1012.0 0.0
27/12:00am 27.0 28.2 19.9 65 4.6 SSE 13 20 7 11 1012.7 1012.3 0.0
 
Date/Time
EDT
Temp
°C
App
Temp
°C
Dew
Point
°C
Rel
Hum
%
Delta-T
°C
Wind Press
QNH
hPa
Press
MSL
hPa
Rain since
9am
mm
Dir  Spd
km/h
Gust
km/h
Spd
kts
Gust
kts
26/11:30pm 26.7 30.3 19.8 66 4.5 CALM 0 4 0 2 1012.1 1011.7 0.0
26/11:00pm 26.9 29.4 19.8 65 4.6 NNE 6 7 3 4 1012.0 1011.6 0.0
26/10:30pm 27.3 29.4 19.4 62 5.1 NNE 7 11 4 6 1011.8 1011.4 0.0
26/10:00pm 27.7 29.0 19.2 60 5.5 NE 11 15 6 8 1011.5 1011.1 0.0
26/09:30pm 28.3 30.4 20.1 61 5.4 NE 9 13 5 7 1011.3 1010.9 0.0
26/09:00pm 28.9 30.7 20.4 60 5.6 NNE 11 13 6 7 1011.0 1010.6 0.0
26/08:30pm 29.4 31.3 20.5 58 5.9 N 11 19 6 10 1010.9 1010.5 0.0
26/08:00pm 29.8 29.5 20.4 57 6.2 NNE 22 32 12 17 1010.3 1009.9 0.0
26/07:30pm 31.2 30.1 21.1 55 6.8 NNE 28 39 15 21 1009.6 1009.2 0.0
26/07:00pm 33.3 34.2 21.5 50 8.0 NE 19 28 10 15 1008.8 1008.4 0.0

Latest Capital City Observations: Canberra | Sydney | Melbourne | Brisbane | Adelaide | Perth | Hobart | Darwin

Other formats

Comma delimited format used in spreadsheet applications
http://www.bom.gov.au/fwo/IDN60901/IDN60901.94752.axf

JavaScript Object Notation format (JSON) in row-major order
http://www.bom.gov.au/fwo/IDN60901/IDN60901.94752.json

Data quality

Most of these data are generated automatically and are frequently updated. Quality checks on data are not normally performed. It is possible for incorrect values to appear. Refer to information at About Latest Weather Observations and please check the disclaimer before using these data.